Lancaster, Pennsylvania
Current Conditions -  °F | °C
As of 3:13 AM on Monday 26 Jan 2015 (Local Time) from KLNS Reporting Station
Light Snow Light Snow  
Wind Chill: 14°   Ceiling: 2000
Heat Index: 26°   Visibility: 3mi
Dew Point: 23°   Wind: 14mph
Humidity: 88%   Direction: 70°ENE
Pressure: 29.88"   Gusts: NA
Location:  40.04°N, 76.3°W
Report Text: KLNS 260813Z AUTO 07012KT 3SM -SN BR OVC020 M03/M05 A2988 RMK AO2 P0000 T10331050
Loading
Personal Weather Stations






























Interactive Weather Map New forecast layout! Learn more

10-Day Weather Forecast

Advertisements
Track Severe Weather on mobile